Time;durP1;ratioP1;P1;durP2;ratioP2;P2;SDS_P1;SDS_P2;PMS_P1;PMS_P2;Temp;Humidity;BMP_temperature;BMP_pressure;BME280_temperature;BME280_humidity;BME280_pressure;Samples;Min_cycle;Max_cycle;Signal;HPM_P1;HPM_P2
2021/11/24 00:01:06;;;;;;;11.18;5.47;;;;;;;-149.78;100.00;50455.81;5032634;28;20037;-64
2021/11/24 00:03:32;;;;;;;18.23;8.75;;;;;;;-149.78;100.00;50477.31;5032129;28;20025;-64
2021/11/24 00:05:58;;;;;;;25.75;11.15;;;;;;;-149.78;100.00;50463.63;5026391;28;20033;-64
2021/11/24 00:08:25;;;;;;;15.70;6.00;;;;;;;-149.78;100.00;50459.72;5028407;28;20061;-64
2021/11/24 00:10:50;;;;;;;13.52;6.60;;;;;;;-149.78;100.00;50459.72;5029999;28;20034;-64
2021/11/24 00:13:16;;;;;;;17.35;6.45;;;;;;;-149.78;100.00;50492.97;5027493;28;20533;-64
2021/11/24 00:15:42;;;;;;;10.70;5.57;;;;;;;-149.78;100.00;50449.94;5031672;28;20045;-64
2021/11/24 00:18:08;;;;;;;8.35;4.55;;;;;;;-149.78;100.00;50438.19;5027132;28;20033;-64
2021/11/24 00:20:33;;;;;;;7.13;4.05;;;;;;;-149.78;100.00;50451.88;5024440;28;20044;-64
2021/11/24 00:22:59;;;;;;;7.43;4.13;;;;;;;-149.78;100.00;50487.09;5026805;28;20136;-64
2021/11/24 00:25:25;;;;;;;8.80;4.50;;;;;;;-149.78;100.00;50467.53;5018645;28;20054;-64
2021/11/24 00:27:51;;;;;;;7.32;4.45;;;;;;;-149.78;100.00;50487.09;5039637;28;20033;-64
2021/11/24 00:30:16;;;;;;;9.52;4.78;;;;;;;-149.78;100.00;50477.31;5030536;28;20044;-64
2021/11/24 00:32:42;;;;;;;8.82;4.55;;;;;;;-149.78;100.00;50465.56;5039033;28;20072;-64
2021/11/24 00:35:08;;;;;;;10.98;5.18;;;;;;;-149.78;100.00;50463.63;5031343;28;20037;-64
2021/11/24 00:37:35;;;;;;;9.73;5.10;;;;;;;-149.78;100.00;50494.91;5030804;28;20057;-64
2021/11/24 00:40:01;;;;;;;11.95;5.25;;;;;;;-149.78;100.00;50455.81;5040282;28;20063;-64
2021/11/24 00:42:27;;;;;;;9.77;5.43;;;;;;;-149.78;100.00;50481.22;5034466;28;20087;-64
2021/11/24 00:44:52;;;;;;;12.10;6.25;;;;;;;-149.78;100.00;50453.84;5018289;28;20041;-64
2021/11/24 00:47:18;;;;;;;13.38;6.28;;;;;;;-149.78;100.00;50434.28;5026955;28;20453;-64
2021/11/24 00:49:44;;;;;;;12.10;5.63;;;;;;;-149.78;100.00;50463.63;5039868;28;20116;-64
2021/11/24 00:52:10;;;;;;;14.82;5.97;;;;;;;-149.78;100.00;50432.31;5034543;28;20033;-64
2021/11/24 00:54:36;;;;;;;9.88;5.55;;;;;;;-149.78;100.00;50440.16;5026073;28;20364;-64
2021/11/24 00:57:02;;;;;;;12.07;5.97;;;;;;;-149.78;100.00;50463.63;5032124;28;20033;-64
2021/11/24 00:59:28;;;;;;;10.85;5.70;;;;;;;-149.78;100.00;50438.19;5029006;28;20025;-64
2021/11/24 01:01:54;;;;;;;13.13;5.90;;;;;;;-149.78;100.00;50440.16;5026901;28;20057;-64
2021/11/24 01:04:19;;;;;;;11.65;6.18;;;;;;;-149.78;100.00;50463.63;5034458;28;20033;-64
2021/11/24 01:06:45;;;;;;;10.98;5.45;;;;;;;-149.78;100.00;50447.97;5042607;28;20365;-64
2021/11/24 01:09:11;;;;;;;10.15;5.65;;;;;;;-149.78;100.00;50447.97;5034989;28;20042;-64
2021/11/24 01:11:38;;;;;;;11.13;6.30;;;;;;;-149.78;100.00;50455.81;5027840;28;20033;-64
2021/11/24 01:14:05;;;;;;;9.23;5.57;;;;;;;-149.78;100.00;50447.97;5029404;28;20033;-64
2021/11/24 01:16:31;;;;;;;10.90;5.57;;;;;;;-149.78;100.00;50467.53;5035647;28;20044;-64
2021/11/24 01:18:56;;;;;;;9.93;5.72;;;;;;;-149.78;100.00;50447.97;5025740;28;20428;-64
2021/11/24 01:21:22;;;;;;;12.50;6.53;;;;;;;-149.78;100.00;50492.97;5031571;28;20393;-64
2021/11/24 01:23:48;;;;;;;11.13;5.85;;;;;;;-149.78;100.00;50465.56;5025650;28;20445;-64
2021/11/24 01:26:14;;;;;;;12.23;6.45;;;;;;;-149.78;100.00;50459.72;5035093;28;20338;-64
2021/11/24 01:28:39;;;;;;;10.10;5.68;;;;;;;-149.78;100.00;50479.28;5020683;28;20452;-64
2021/11/24 01:31:05;;;;;;;12.20;6.22;;;;;;;-149.78;100.00;50451.88;5018700;28;20065;-64
2021/11/24 01:33:32;;;;;;;14.32;6.32;;;;;;;-149.78;100.00;50447.97;5031244;28;20044;-64
2021/11/24 01:35:58;;;;;;;12.20;6.18;;;;;;;-149.78;100.00;50428.41;5033167;28;20396;-64
2021/11/24 01:38:24;;;;;;;13.13;6.80;;;;;;;-149.78;100.00;50453.84;5035798;28;20034;-64
2021/11/24 01:40:50;;;;;;;12.77;7.38;;;;;;;-149.78;100.00;50447.97;5033944;28;20132;-64
2021/11/24 01:43:16;;;;;;;11.98;6.40;;;;;;;-149.78;100.00;50459.72;5032127;28;20034;-64
2021/11/24 01:45:42;;;;;;;12.35;5.90;;;;;;;-149.78;100.00;50455.81;5033871;28;20056;-64
2021/11/24 01:48:08;;;;;;;14.35;6.07;;;;;;;-149.78;100.00;50428.41;5032759;28;20056;-64
2021/11/24 01:50:35;;;;;;;13.05;6.70;;;;;;;-149.78;100.00;50440.16;5035065;28;20552;-64
2021/11/24 01:53:01;;;;;;;11.68;6.35;;;;;;;-149.78;100.00;50463.63;5036316;28;20037;-64
2021/11/24 01:55:27;;;;;;;12.07;6.10;;;;;;;-149.78;100.00;50459.72;5035278;28;20036;-64
2021/11/24 01:57:53;;;;;;;11.18;5.82;;;;;;;-149.78;100.00;50469.50;5033456;28;20519;-64
2021/11/24 02:00:28;;;;;;;14.13;5.68;;;;;;;-149.78;100.00;50436.25;5033379;28;20075;-64
2021/11/24 02:02:54;;;;;;;12.95;5.93;;;;;;;-149.78;100.00;50465.56;5029411;28;20057;-64
2021/11/24 02:05:21;;;;;;;14.57;6.18;;;;;;;-149.78;100.00;50447.97;5034391;28;20124;-64
2021/11/24 02:07:47;;;;;;;12.63;6.28;;;;;;;-149.78;100.00;50479.28;5031210;28;20076;-64
2021/11/24 02:10:12;;;;;;;10.70;5.28;;;;;;;-149.78;100.00;50463.63;5022265;28;20034;-64
2021/11/24 02:12:39;;;;;;;13.23;5.97;;;;;;;-149.78;100.00;50492.97;5032137;28;20037;-64
2021/11/24 02:15:06;;;;;;;12.68;5.78;;;;;;;-149.78;100.00;50467.53;5033615;28;20128;-64
2021/11/24 02:17:32;;;;;;;15.75;6.90;;;;;;;-149.78;100.00;50432.31;5032210;28;20456;-64
2021/11/24 02:19:58;;;;;;;12.57;5.93;;;;;;;-149.78;100.00;50424.50;5033533;28;20033;-64
2021/11/24 02:22:23;;;;;;;13.05;6.22;;;;;;;-149.78;100.00;50432.31;5034491;28;20033;-64
2021/11/24 02:24:49;;;;;;;13.90;5.95;;;;;;;-149.78;100.00;50477.31;5032253;28;20060;-64
2021/11/24 02:27:15;;;;;;;13.30;5.80;;;;;;;-149.78;100.00;50487.09;5028023;28;20040;-64
2021/11/24 02:29:44;;;;;;;12.63;5.80;;;;;;;-149.78;100.00;50467.53;5033775;28;20037;-64
2021/11/24 02:32:12;;;;;;;14.20;6.10;;;;;;;-149.78;100.00;50475.34;5030202;28;20041;-64
2021/11/24 02:34:38;;;;;;;11.43;6.15;;;;;;;-149.78;100.00;50455.81;5034008;28;20037;-64
2021/11/24 02:37:04;;;;;;;15.30;7.20;;;;;;;-149.78;100.00;50455.81;5033424;28;20083;-64
2021/11/24 02:39:30;;;;;;;13.60;6.70;;;;;;;-149.78;100.00;50479.28;5033630;28;20029;-64
2021/11/24 02:41:57;;;;;;;18.05;7.65;;;;;;;-149.78;100.00;50451.88;5032571;28;20090;-64
2021/11/24 02:44:28;;;;;;;14.07;7.20;;;;;;;-149.78;100.00;50455.81;5032286;28;20030;-64
2021/11/24 02:47:05;;;;;;;13.43;7.13;;;;;;;-149.78;100.00;50428.41;5036344;28;20041;-64
2021/11/24 02:49:35;;;;;;;15.75;6.90;;;;;;;-149.78;100.00;50459.72;5033297;28;20338;-64
2021/11/24 02:52:00;;;;;;;12.63;6.50;;;;;;;-149.78;100.00;50461.66;5034635;28;20043;-64
2021/11/24 02:54:26;;;;;;;12.68;6.80;;;;;;;-149.78;100.00;50438.19;5033856;28;20029;-64
2021/11/24 02:56:51;;;;;;;16.23;7.97;;;;;;;-149.78;100.00;50444.06;5031018;28;20038;-61
2021/11/24 02:59:17;;;;;;;13.35;6.80;;;;;;;-149.78;100.00;50483.19;5027203;28;20033;-62
2021/11/24 03:01:42;;;;;;;18.70;7.47;;;;;;;-149.78;100.00;50440.16;5029472;28;20033;-64
2021/11/24 03:04:08;;;;;;;15.63;7.03;;;;;;;-149.78;100.00;50412.78;5024289;28;20042;-63
2021/11/24 03:06:35;;;;;;;14.75;7.50;;;;;;;-149.78;100.00;50447.97;5029872;28;20026;-64
2021/11/24 03:09:03;;;;;;;13.13;7.38;;;;;;;-149.78;100.00;50469.50;5028796;28;20030;-64
2021/11/24 03:11:28;;;;;;;17.75;7.78;;;;;;;-149.78;100.00;50451.88;5032175;28;20032;-62
2021/11/24 03:13:54;;;;;;;17.83;7.50;;;;;;;-149.78;100.00;50436.25;5032423;28;20045;-62
2021/11/24 03:16:19;;;;;;;13.23;7.18;;;;;;;-149.78;100.00;50449.94;5030323;28;20060;-61
2021/11/24 03:18:45;;;;;;;12.63;6.55;;;;;;;-149.78;100.00;50447.97;5026635;28;20044;-61
2021/11/24 03:21:10;;;;;;;13.57;7.07;;;;;;;-149.78;100.00;50420.59;5032247;28;20037;-61
2021/11/24 03:23:36;;;;;;;14.93;6.97;;;;;;;-149.78;100.00;50463.63;5031800;28;20492;-62
2021/11/24 03:26:02;;;;;;;15.20;6.90;;;;;;;-149.78;100.00;50463.63;5029890;28;20034;-61
2021/11/24 03:28:27;;;;;;;15.05;7.28;;;;;;;-149.78;100.00;50440.16;5032939;28;20120;-61
2021/11/24 03:30:53;;;;;;;13.35;6.78;;;;;;;-149.78;100.00;50410.81;5029488;28;20380;-61
2021/11/24 03:33:19;;;;;;;15.45;7.57;;;;;;;-149.78;100.00;50487.09;5031843;28;20039;-61
2021/11/24 03:35:44;;;;;;;14.13;7.32;;;;;;;-149.78;100.00;50440.16;5030824;28;20060;-61
2021/11/24 03:38:10;;;;;;;15.00;7.18;;;;;;;-149.78;100.00;50467.53;5033288;28;20098;-62
2021/11/24 03:40:35;;;;;;;17.02;7.53;;;;;;;-149.78;100.00;50471.44;5018682;28;20048;-61
2021/11/24 03:43:02;;;;;;;13.98;6.65;;;;;;;-149.78;100.00;50453.84;5019173;28;20037;-61
2021/11/24 03:45:31;;;;;;;15.95;7.40;;;;;;;-149.78;100.00;50475.34;5033203;28;20091;-61
2021/11/24 03:47:59;;;;;;;14.82;6.97;;;;;;;-149.78;100.00;50451.88;5042057;28;20029;-61
2021/11/24 03:50:25;;;;;;;16.88;6.93;;;;;;;-149.78;100.00;50428.41;5039556;28;20175;-61
2021/11/24 03:52:51;;;;;;;15.63;7.60;;;;;;;-149.78;100.00;50479.28;5030863;28;20125;-62
2021/11/24 03:55:17;;;;;;;14.73;7.03;;;;;;;-149.78;100.00;50440.16;5037459;28;20041;-62
2021/11/24 03:57:44;;;;;;;14.80;6.95;;;;;;;-149.78;100.00;50459.72;5035034;28;20446;-61
2021/11/24 04:00:14;;;;;;;15.73;7.43;;;;;;;-149.78;100.00;50483.19;5025978;28;20036;-61
2021/11/24 04:02:40;;;;;;;16.77;7.75;;;;;;;-149.78;100.00;50498.81;5036933;28;20468;-61
2021/11/24 04:05:08;;;;;;;17.33;7.68;;;;;;;-149.78;100.00;50463.63;5023674;28;20041;-61
2021/11/24 04:07:34;;;;;;;13.57;7.13;;;;;;;-149.78;100.00;50449.94;5026956;28;20481;-62
2021/11/24 04:10:00;;;;;;;13.52;6.97;;;;;;;-149.78;100.00;50438.19;5027327;28;20061;-61
2021/11/24 04:12:25;;;;;;;13.10;6.85;;;;;;;-149.78;100.00;50467.53;5031413;28;20123;-61
2021/11/24 04:14:51;;;;;;;14.75;7.50;;;;;;;-149.78;100.00;50434.28;5033483;28;20037;-62
2021/11/24 04:17:17;;;;;;;14.95;7.32;;;;;;;-149.78;100.00;50428.41;5030065;28;20037;-62
2021/11/24 04:19:42;;;;;;;15.52;7.45;;;;;;;-149.78;100.00;50455.81;5031566;28;20021;-61
2021/11/24 04:22:08;;;;;;;14.77;7.20;;;;;;;-149.78;100.00;50461.66;5030902;28;20083;-61
2021/11/24 04:24:35;;;;;;;17.08;7.30;;;;;;;-149.78;100.00;50471.44;5025406;28;20053;-62
2021/11/24 04:27:01;;;;;;;15.70;7.93;;;;;;;-149.78;100.00;50424.50;5036119;28;20036;-62
2021/11/24 04:29:26;;;;;;;14.80;6.90;;;;;;;-149.78;100.00;50471.44;5029302;28;20033;-61
2021/11/24 04:31:52;;;;;;;13.05;6.80;;;;;;;-149.78;100.00;50432.31;5031954;28;20048;-61
2021/11/24 04:34:18;;;;;;;14.65;7.13;;;;;;;-149.78;100.00;50438.19;5032151;28;20079;-61
2021/11/24 04:36:43;;;;;;;14.43;6.80;;;;;;;-149.78;100.00;50463.63;5026659;28;20026;-61
2021/11/24 04:39:09;;;;;;;13.73;6.95;;;;;;;-149.78;100.00;50467.53;5031454;28;20428;-61
2021/11/24 04:41:36;;;;;;;14.98;6.90;;;;;;;-149.78;100.00;50467.53;5027019;28;20040;-61
2021/11/24 04:44:03;;;;;;;17.92;8.30;;;;;;;-149.78;100.00;50496.88;5029683;28;20092;-61
2021/11/24 04:46:29;;;;;;;16.17;7.75;;;;;;;-149.78;100.00;50459.72;5034524;28;20040;-61
2021/11/24 04:48:55;;;;;;;12.77;6.50;;;;;;;-149.78;100.00;50449.94;5028882;28;20042;-62
2021/11/24 04:51:20;;;;;;;11.35;6.35;;;;;;;-149.78;100.00;50518.38;5033448;28;20580;-62
2021/11/24 04:53:47;;;;;;;13.75;7.00;;;;;;;-149.78;100.00;50459.72;5031830;28;20044;-61
2021/11/24 04:56:13;;;;;;;16.65;7.85;;;;;;;-149.78;100.00;50430.38;5039307;28;20048;-61
2021/11/24 04:58:57;;;;;;;11.77;6.43;;;;;;;-149.78;100.00;50444.06;5034707;28;20358;-62
2021/11/24 05:01:23;;;;;;;11.90;6.38;;;;;;;-149.78;100.00;50440.16;5029475;28;20358;-61
2021/11/24 05:03:50;;;;;;;12.10;5.88;;;;;;;-149.78;100.00;50498.81;5030527;28;20472;-61
2021/11/24 05:06:17;;;;;;;10.65;5.85;;;;;;;-149.78;100.00;50432.31;5029608;28;20041;-62
2021/11/24 05:08:44;;;;;;;10.30;5.43;;;;;;;-149.78;100.00;50428.41;5033547;28;20465;-61
2021/11/24 05:11:11;;;;;;;9.95;4.53;;;;;;;-149.78;100.00;50469.50;5033894;28;20044;-61
2021/11/24 05:13:38;;;;;;;10.23;5.22;;;;;;;-149.78;100.00;50432.31;5034242;28;20036;-61
2021/11/24 05:16:05;;;;;;;12.38;5.68;;;;;;;-149.78;100.00;50473.41;5032385;28;20041;-61
2021/11/24 05:18:41;;;;;;;9.70;5.15;;;;;;;-149.78;100.00;50485.13;5035417;28;20107;-61
2021/11/24 05:21:13;;;;;;;8.73;5.40;;;;;;;-149.78;100.00;50475.34;5028074;28;20045;-61
2021/11/24 05:23:42;;;;;;;8.90;4.93;;;;;;;-149.78;100.00;50483.19;5032809;28;20480;-61
2021/11/24 05:26:10;;;;;;;10.50;5.40;;;;;;;-149.78;100.00;50492.97;5033732;28;20116;-61
2021/11/24 05:28:36;;;;;;;8.00;4.53;;;;;;;-149.78;100.00;50430.38;5034922;28;20038;-61
2021/11/24 05:31:03;;;;;;;7.85;4.65;;;;;;;-149.78;100.00;50475.34;5033304;28;20061;-61
2021/11/24 05:33:28;;;;;;;10.35;5.22;;;;;;;-149.78;100.00;50436.25;5032647;28;20041;-62
2021/11/24 05:35:54;;;;;;;12.77;5.53;;;;;;;-149.78;100.00;50498.81;5036790;28;20048;-61
2021/11/24 05:38:20;;;;;;;10.27;5.43;;;;;;;-149.78;100.00;50455.81;5033232;28;20057;-62
2021/11/24 05:40:46;;;;;;;10.35;5.05;;;;;;;-149.78;100.00;50467.53;5032347;28;20086;-62
2021/11/24 05:43:13;;;;;;;12.82;5.60;;;;;;;-149.78;100.00;50467.53;5034060;28;20033;-61
2021/11/24 05:45:48;;;;;;;9.27;4.70;;;;;;;-149.78;100.00;50500.78;5034289;28;20129;-61
2021/11/24 05:48:14;;;;;;;10.38;5.20;;;;;;;-149.78;100.00;50485.13;5028788;28;20034;-61
2021/11/24 05:50:45;;;;;;;11.02;5.70;;;;;;;-149.78;100.00;50428.41;5034871;28;20030;-61
2021/11/24 05:53:12;;;;;;;11.27;5.25;;;;;;;-149.78;100.00;50494.91;5029665;28;20065;-62
2021/11/24 05:55:39;;;;;;;9.73;4.90;;;;;;;-149.78;100.00;50447.97;5040899;28;20029;-62
2021/11/24 05:58:04;;;;;;;10.82;5.07;;;;;;;-149.78;100.00;50475.34;5034662;28;20090;-62
2021/11/24 06:00:33;;;;;;;9.05;4.60;;;;;;;-149.78;100.00;50455.81;5032964;28;20064;-61
2021/11/24 06:02:58;;;;;;;8.00;4.07;;;;;;;-149.78;100.00;50479.28;5027938;28;20120;-62
2021/11/24 06:05:24;;;;;;;8.52;4.40;;;;;;;-149.78;100.00;50510.56;5040931;28;20124;-61
2021/11/24 06:07:50;;;;;;;9.77;4.00;;;;;;;-149.78;100.00;50463.63;5031269;28;20120;-62
2021/11/24 06:10:16;;;;;;;9.13;3.85;;;;;;;-149.78;100.00;50449.94;5039710;28;20038;-63
2021/11/24 06:12:41;;;;;;;6.60;3.35;;;;;;;-149.78;100.00;50463.63;5031044;28;20564;-64
2021/11/24 06:15:07;;;;;;;9.80;2.70;;;;;;;-149.78;100.00;50449.94;5031714;28;20037;-64
2021/11/24 06:17:33;;;;;;;5.22;3.05;;;;;;;-149.78;100.00;50461.66;5028539;28;20082;-65
2021/11/24 06:19:59;;;;;;;8.52;2.90;;;;;;;-149.78;100.00;50479.28;5033257;28;20491;-63
2021/11/24 06:22:25;;;;;;;6.65;2.55;;;;;;;-149.78;100.00;50444.06;5031622;28;20393;-62
2021/11/24 06:24:50;;;;;;;6.43;2.85;;;;;;;-149.78;100.00;50440.16;5032884;28;20053;-61
2021/11/24 06:27:16;;;;;;;5.80;2.95;;;;;;;-149.78;100.00;50485.13;5033490;28;20033;-61
2021/11/24 06:29:42;;;;;;;4.75;2.47;;;;;;;-149.78;100.00;50487.09;5027876;28;20033;-61
2021/11/24 06:32:07;;;;;;;4.82;2.50;;;;;;;-149.78;100.00;50498.81;5032527;28;20404;-61
2021/11/24 06:34:34;;;;;;;4.85;3.13;;;;;;;-149.78;100.00;50487.09;5030996;28;20433;-62
2021/11/24 06:36:59;;;;;;;6.00;3.28;;;;;;;-149.78;100.00;50428.41;5024715;28;20065;-62
2021/11/24 06:39:26;;;;;;;10.27;3.40;;;;;;;-149.78;100.00;50502.75;5021448;28;20041;-61
2021/11/24 06:41:54;;;;;;;7.60;3.33;;;;;;;-149.78;100.00;50459.72;5022060;28;20116;-61
2021/11/24 06:44:21;;;;;;;5.78;3.03;;;;;;;-149.78;100.00;50479.28;5019655;28;21379;-61
2021/11/24 06:46:46;;;;;;;6.60;3.58;;;;;;;-149.78;100.00;50469.50;5028820;28;20075;-61
2021/11/24 06:49:12;;;;;;;5.90;3.38;;;;;;;-149.78;100.00;50428.41;5021300;28;20120;-62
2021/11/24 06:51:38;;;;;;;7.70;3.20;;;;;;;-149.78;100.00;50475.34;5024373;28;20068;-61
2021/11/24 06:54:04;;;;;;;5.32;3.20;;;;;;;-149.78;100.00;50496.88;5022454;28;20134;-61
2021/11/24 06:56:30;;;;;;;5.57;3.15;;;;;;;-149.78;100.00;50479.28;5019335;28;20492;-61
2021/11/24 06:58:56;;;;;;;5.47;2.95;;;;;;;-149.78;100.00;50492.97;5026738;28;20133;-62
2021/11/24 07:01:21;;;;;;;4.65;2.92;;;;;;;-149.78;100.00;50438.19;5032350;28;20492;-61
2021/11/24 07:03:48;;;;;;;4.30;2.75;;;;;;;-149.78;100.00;50432.31;5031359;28;20564;-61
2021/11/24 07:06:15;;;;;;;5.57;2.88;;;;;;;-149.78;100.00;50475.34;5023702;28;20044;-62
2021/11/24 07:08:41;;;;;;;5.72;3.00;;;;;;;-149.78;100.00;50471.44;5023610;28;20147;-62
2021/11/24 07:11:07;;;;;;;5.45;2.97;;;;;;;-149.78;100.00;50483.19;5024175;28;20025;-62
2021/11/24 07:13:32;;;;;;;5.65;3.05;;;;;;;-149.78;100.00;50471.44;5031872;28;20460;-63
2021/11/24 07:15:58;;;;;;;7.22;3.00;;;;;;;-149.78;100.00;50457.75;5026685;28;20119;-62
2021/11/24 07:18:24;;;;;;;8.73;3.03;;;;;;;-149.78;100.00;50459.72;5028154;28;20046;-62
2021/11/24 07:20:50;;;;;;;5.32;2.72;;;;;;;-149.78;100.00;50451.88;5030919;28;20567;-62
2021/11/24 07:23:15;;;;;;;5.43;3.00;;;;;;;-149.78;100.00;50440.16;5030420;28;20477;-62
2021/11/24 07:25:41;;;;;;;7.20;3.03;;;;;;;-149.78;100.00;50477.31;5026237;28;20060;-62
2021/11/24 07:28:07;;;;;;;8.48;3.92;;;;;;;-149.78;100.00;50479.28;5030280;28;20038;-63
2021/11/24 07:30:32;;;;;;;7.88;3.95;;;;;;;-149.78;100.00;50479.28;5028391;28;20480;-64
2021/11/24 07:32:58;;;;;;;6.57;3.63;;;;;;;-149.78;100.00;50447.97;5031334;28;20555;-63
2021/11/24 07:35:23;;;;;;;8.88;4.30;;;;;;;-149.78;100.00;50491.00;5033479;28;20033;-63
2021/11/24 07:37:49;;;;;;;7.85;4.47;;;;;;;-149.78;100.00;50502.75;5022425;28;20033;-63
2021/11/24 07:40:15;;;;;;;8.45;4.68;;;;;;;-149.78;100.00;50447.97;5028829;28;20045;-63
2021/11/24 07:42:41;;;;;;;10.52;4.35;;;;;;;-149.78;100.00;50455.81;5024611;28;20105;-63
2021/11/24 07:45:07;;;;;;;8.63;5.05;;;;;;;-149.78;100.00;50502.75;5026505;28;20659;-62
2021/11/24 07:47:33;;;;;;;8.85;4.72;;;;;;;-149.78;100.00;50455.81;5031166;28;20057;-63
2021/11/24 07:49:59;;;;;;;12.60;5.72;;;;;;;-149.78;100.00;50451.88;5025702;28;20026;-62
2021/11/24 07:52:25;;;;;;;12.13;6.82;;;;;;;-149.78;100.00;50467.53;5020829;28;20044;-63
2021/11/24 07:54:54;;;;;;;14.93;7.60;;;;;;;-149.78;100.00;50506.66;5024534;28;20139;-63
2021/11/24 07:57:22;;;;;;;10.82;6.47;;;;;;;-149.78;100.00;50502.75;5021540;28;20384;-63
2021/11/24 07:59:48;;;;;;;13.43;7.55;;;;;;;-149.78;100.00;50463.63;5029130;28;20468;-63
2021/11/24 08:02:14;;;;;;;14.05;6.72;;;;;;;-149.78;100.00;50483.19;5029276;28;20038;-63
2021/11/24 08:04:39;;;;;;;14.00;7.68;;;;;;;-149.78;100.00;50479.28;5030169;28;20078;-62
2021/11/24 08:07:05;;;;;;;16.75;7.60;;;;;;;-149.78;100.00;50453.84;5028615;28;20033;-63
2021/11/24 08:09:31;;;;;;;15.85;7.07;;;;;;;-149.78;100.00;50438.19;5028193;28;20095;-64
2021/11/24 08:11:58;;;;;;;17.40;8.00;;;;;;;-149.78;100.00;50475.34;5032778;28;20476;-64
2021/11/24 08:14:27;;;;;;;14.95;7.70;;;;;;;-149.78;100.00;50485.13;5031575;28;20033;-64
2021/11/24 08:16:53;;;;;;;15.40;7.68;;;;;;;-149.78;100.00;50463.63;5031186;28;20113;-64
2021/11/24 08:19:19;;;;;;;16.05;7.35;;;;;;;-149.78;100.00;50416.69;5032396;28;20096;-66
2021/11/24 08:21:45;;;;;;;14.77;7.40;;;;;;;-149.78;100.00;50438.19;5026420;28;20054;-63
2021/11/24 08:24:11;;;;;;;17.58;8.15;;;;;;;-149.78;100.00;50479.28;5025411;28;20045;-64
2021/11/24 08:26:37;;;;;;;14.05;7.75;;;;;;;-149.78;100.00;50467.53;5019812;28;20025;-64
2021/11/24 08:29:03;;;;;;;15.52;8.00;;;;;;;-149.78;100.00;50473.41;5024818;28;20381;-64
2021/11/24 08:31:29;;;;;;;16.15;8.45;;;;;;;-149.78;100.00;50436.25;5016000;28;20041;-64
2021/11/24 08:33:55;;;;;;;12.65;6.70;;;;;;;-149.78;100.00;50432.31;5013267;28;20037;-64
2021/11/24 08:36:20;;;;;;;15.73;7.07;;;;;;;-149.78;100.00;50440.16;5017063;28;20040;-64
2021/11/24 08:38:46;;;;;;;11.82;6.15;;;;;;;-149.78;100.00;50451.88;5029706;28;20053;-64
2021/11/24 08:41:13;;;;;;;11.45;6.50;;;;;;;-149.78;100.00;50432.31;5029552;28;20056;-64
2021/11/24 08:43:39;;;;;;;14.00;6.70;;;;;;;-149.78;100.00;50447.97;5029552;28;20507;-64
2021/11/24 08:46:05;;;;;;;12.23;6.45;;;;;;;-149.78;100.00;50491.00;5029418;28;20056;-64
2021/11/24 08:48:32;;;;;;;10.80;6.57;;;;;;;-149.78;100.00;50451.88;5030855;28;20033;-64
2021/11/24 08:50:59;;;;;;;13.80;6.55;;;;;;;-149.78;100.00;50416.69;5029554;28;20037;-64
2021/11/24 08:53:25;;;;;;;12.90;7.28;;;;;;;-149.78;100.00;50444.06;5031785;28;20060;-64
2021/11/24 08:55:51;;;;;;;13.15;7.80;;;;;;;-149.78;100.00;50432.31;5030646;28;20059;-64
2021/11/24 08:58:18;;;;;;;13.43;7.55;;;;;;;-149.78;100.00;50471.44;5028798;28;20060;-64
2021/11/24 09:00:44;;;;;;;13.23;7.32;;;;;;;-149.78;100.00;50436.25;5030793;28;20029;-64
2021/11/24 09:03:10;;;;;;;15.52;7.88;;;;;;;-149.78;100.00;50453.84;5023027;28;20063;-64
2021/11/24 09:05:37;;;;;;;16.90;8.20;;;;;;;-149.78;100.00;50469.50;5025545;28;20037;-64
2021/11/24 09:08:03;;;;;;;18.30;8.10;;;;;;;-149.78;100.00;50453.84;5025151;28;20045;-65
2021/11/24 09:10:31;;;;;;;15.25;7.20;;;;;;;-149.78;100.00;50459.72;5021931;28;20392;-64
2021/11/24 09:13:00;;;;;;;17.15;8.45;;;;;;;-149.78;100.00;50459.72;5014125;28;20038;-64
2021/11/24 09:15:26;;;;;;;13.80;7.57;;;;;;;-149.78;100.00;50483.19;5014342;28;20037;-64
2021/11/24 09:17:52;;;;;;;17.75;8.15;;;;;;;-149.78;100.00;50438.19;5024992;28;20051;-64
2021/11/24 09:20:19;;;;;;;17.55;8.77;;;;;;;-149.78;100.00;50447.97;5025691;28;20029;-65
2021/11/24 09:22:47;;;;;;;16.10;8.07;;;;;;;-149.78;100.00;50440.16;5028309;28;20500;-64
2021/11/24 09:25:20;;;;;;;15.60;7.82;;;;;;;-149.78;100.00;50469.50;5031488;28;20132;-64
2021/11/24 09:27:59;;;;;;;13.80;7.38;;;;;;;-149.78;100.00;50463.63;5029006;28;20041;-64
2021/11/24 09:30:27;;;;;;;12.95;7.57;;;;;;;-149.78;100.00;50438.19;5033356;28;20065;-64
2021/11/24 09:32:53;;;;;;;14.05;8.65;;;;;;;-149.78;100.00;50459.72;5033838;28;20033;-64
2021/11/24 09:35:19;;;;;;;13.90;7.47;;;;;;;-149.78;100.00;50467.53;5034025;28;20044;-64
2021/11/24 09:37:45;;;;;;;11.80;6.90;;;;;;;-149.78;100.00;50418.63;5032733;28;20030;-64
2021/11/24 09:40:11;;;;;;;14.68;8.05;;;;;;;-149.78;100.00;50424.50;5032894;28;20163;-64
2021/11/24 09:42:41;;;;;;;20.23;7.28;;;;;;;-149.78;100.00;50436.25;5039559;28;21466;-64
2021/11/24 09:45:07;;;;;;;15.25;6.45;;;;;;;-149.78;100.00;50440.16;5033324;28;20472;-64
2021/11/24 09:47:35;;;;;;;14.55;6.80;;;;;;;-149.78;100.00;50426.47;5032519;28;20029;-64
2021/11/24 09:50:04;;;;;;;12.93;6.38;;;;;;;-149.78;100.00;50432.31;5027439;28;20041;-64
2021/11/24 09:52:32;;;;;;;23.55;8.27;;;;;;;-149.78;100.00;50416.69;5038129;28;20103;-64
2021/11/24 09:54:58;;;;;;;12.00;6.00;;;;;;;-149.78;100.00;50404.94;5028212;28;20076;-64
2021/11/24 09:57:26;;;;;;;10.65;5.68;;;;;;;-149.78;100.00;50463.63;5027830;28;20026;-64
2021/11/24 09:59:52;;;;;;;7.50;5.28;;;;;;;-149.78;100.00;50436.25;5033363;28;20033;-64
2021/11/24 10:02:19;;;;;;;12.40;5.93;;;;;;;-149.78;100.00;50455.81;5030475;28;20036;-64
2021/11/24 10:04:46;;;;;;;54.17;9.90;;;;;;;-149.78;100.00;50432.31;5034713;28;20036;-64
2021/11/24 10:07:16;;;;;;;9.82;5.57;;;;;;;-149.78;100.00;50391.25;5028589;28;20180;-64
2021/11/24 10:09:43;;;;;;;11.65;5.60;;;;;;;-149.78;100.00;50401.03;5033684;28;20571;-64
2021/11/24 10:12:10;;;;;;;14.20;5.75;;;;;;;-149.78;100.00;50420.59;5027525;28;20103;-64
2021/11/24 10:14:51;;;;;;;8.85;5.00;;;;;;;-149.78;100.00;50449.94;5033707;28;20036;-64
2021/11/24 10:32:36;;;;;;;19.48;6.22;;;;;;;-149.78;100.00;50420.59;5027509;28;20119;-66
2021/11/24 10:35:29;;;;;;;10.60;4.45;;;;;;;-149.78;100.00;50424.50;5030176;28;20471;-65
2021/11/24 10:38:14;;;;;;;11.77;4.50;;;;;;;-149.78;100.00;50447.97;5020618;28;20041;-66
2021/11/24 10:40:43;;;;;;;7.40;3.70;;;;;;;-149.78;100.00;50453.84;5028789;28;20121;-65
2021/11/24 10:43:14;;;;;;;14.85;4.20;;;;;;;-149.78;100.00;50447.97;5032665;28;20037;-65
2021/11/24 10:45:54;;;;;;;13.50;3.97;;;;;;;-149.78;100.00;50461.66;5030580;28;20052;-65
2021/11/24 10:48:31;;;;;;;13.45;4.68;;;;;;;-149.78;100.00;50436.25;5022516;28;20087;-64
2021/11/24 10:51:00;;;;;;;18.35;4.10;;;;;;;-149.78;100.00;50420.59;5030995;28;20033;-64
2021/11/24 10:53:25;;;;;;;23.88;5.40;;;;;;;-149.78;100.00;50420.59;5025398;28;20030;-65
2021/11/24 10:55:51;;;;;;;6.97;3.42;;;;;;;-149.78;100.00;50408.84;5050877;28;20068;-64
2021/11/24 10:58:25;;;;;;;6.30;3.83;;;;;;;-149.78;100.00;50453.84;5019654;28;20076;-64
2021/11/24 11:00:53;;;;;;;9.63;3.92;;;;;;;-149.78;100.00;50397.13;5033951;28;20037;-64
2021/11/24 11:03:21;;;;;;;9.63;3.97;;;;;;;-149.78;100.00;50424.50;5030212;28;20030;-64
2021/11/24 11:05:53;;;;;;;6.22;3.60;;;;;;;-149.78;100.00;50418.63;5030246;28;20040;-64
2021/11/24 11:08:19;;;;;;;9.48;3.40;;;;;;;-149.78;100.00;50412.78;5031009;28;20435;-64
2021/11/24 11:10:47;;;;;;;5.80;3.75;;;;;;;-149.78;100.00;50426.47;5026345;28;20140;-64
2021/11/24 11:13:15;;;;;;;6.57;3.38;;;;;;;-149.78;100.00;50424.50;5028982;28;20059;-64
2021/11/24 11:15:44;;;;;;;7.60;3.22;;;;;;;-149.78;100.00;50447.97;5024798;28;20404;-64
2021/11/24 11:18:25;;;;;;;6.57;3.60;;;;;;;-149.78;100.00;50428.41;5025348;28;20065;-64